Moscow/Domodedovo International Airport

Airport
ICAO code: 
UUDD
IATA Code: 
DME
Summary
ICAO Region: 
EUR
Territory: 
Location: 
Domodedovo, Moscow Oblast,
Serving: 
Moscow
Elevation: 
588 ft
Coordinates: 
Aerial View: 
55° 24' 31.247" N, 37° 54' 12.255" E
Metar
Observation
UUDD 071200Z 16005MPS 4300 -SN BKN006 OVC025 M01/M02 Q1010 R14R/590335 R14C/590535 NOSIG
Station
Moscow / Domodedovo
Date/Time
2021-12-07 12:00:00
Wind direction
160°
Lowest cloud amount
broken clouds
Temperature
-1°C
Dew point
-2°C
Humidity
92%
QNH
1010 hPa
Weather condition
n/a

Description

International airport serving Moscow, Russia.

Climatology

Humid Continental climate (Köppen climate classification Dfb) - Variable weather patterns and a large seasonal temperature variance. Summers are often warm and humid with frequent thunderstorms and winters can be very cold with frequent snowfall and persistent snow cover.

Runways

Designator Length Width Surface Rops
14C/32C 2600 45 CON Yes/Yes
14R/32L 3500 70 CON Yes/Yes
14L/32R 3794 53 CON Yes/Yes
Airport map: 
Aerial View: 

Accidents and Serious Incidents at or in the vicinity of UUDD

SKYbrary Partners:

Safety knowledge contributed by: